Time,TemperatureF,DewpointF,PressureIn,WindDirection,WindDirectionDegrees,WindSpeedMPH,WindSpeedGustMPH,Humidity,HourlyPrecipIn,Conditions,Clouds,dailyrainin,SoftwareType,DateUTC
2013-04-27 00:02:00,67.0,66.0,30.06,NE,47,0.0,-999.0,96,-99.99,,,-99.99,,2013-04-27 10:02:00,
2013-04-27 00:11:00,67.0,66.0,30.06,NE,47,0.0,-999.0,96,-99.99,,,-99.99,,2013-04-27 10:11:00,
2013-04-27 00:22:00,67.0,66.0,30.06,NE,47,0.0,-999.0,96,-99.99,,,-99.99,,2013-04-27 10:22:00,
2013-04-27 00:32:00,67.0,66.0,30.05,NE,47,0.0,-999.0,97,-99.99,,,-99.99,,2013-04-27 10:32:00,
2013-04-27 00:42:00,67.0,66.0,30.05,NE,47,0.0,-999.0,97,-99.99,,,-99.99,,2013-04-27 10:42:00,
2013-04-27 00:52:00,67.0,66.0,30.05,NE,47,0.0,-999.0,96,-99.99,,,-99.99,,2013-04-27 10:52:00,
2013-04-27 01:02:00,66.0,65.0,30.05,NE,48,0.0,-999.0,97,-99.99,,,-99.99,,2013-04-27 11:02:00,
2013-04-27 01:11:00,66.0,65.0,30.04,NE,47,0.0,-999.0,97,-99.99,,,-99.99,,2013-04-27 11:11:00,
2013-04-27 01:21:00,66.0,65.0,30.04,NE,47,0.0,-999.0,97,-99.99,,,-99.99,,2013-04-27 11:21:00,
2013-04-27 01:31:00,66.0,65.0,30.04,NE,47,0.0,-999.0,97,-99.99,,,-99.99,,2013-04-27 11:31:00,
2013-04-27 01:41:00,66.0,65.0,30.04,NE,47,0.0,-999.0,97,-99.99,,,-99.99,,2013-04-27 11:41:00,
2013-04-27 01:52:00,66.0,65.0,30.04,NE,47,0.0,-999.0,97,-99.99,,,-99.99,,2013-04-27 11:52:00,
2013-04-27 02:01:00,66.0,65.0,30.03,NE,47,0.0,-999.0,97,-99.99,,,-99.99,,2013-04-27 12:01:00,
2013-04-27 02:11:00,66.0,65.0,30.03,NE,47,0.0,-999.0,97,-99.99,,,-99.99,,2013-04-27 12:11:00,
2013-04-27 02:21:00,65.0,64.0,30.03,NE,47,0.0,-999.0,97,-99.99,,,-99.99,,2013-04-27 12:21:00,
2013-04-27 02:32:00,65.0,64.0,30.03,NE,47,0.0,-999.0,97,-99.99,,,-99.99,,2013-04-27 12:32:00,
2013-04-27 02:42:00,65.0,64.0,30.03,NE,47,0.0,-999.0,97,-99.99,,,-99.99,,2013-04-27 12:42:00,
2013-04-27 02:51:00,65.0,64.0,30.03,NE,48,0.0,-999.0,97,-99.99,,,-99.99,,2013-04-27 12:51:00,
2013-04-27 03:01:00,65.0,64.0,30.02,NE,47,0.0,-999.0,98,-99.99,,,-99.99,,2013-04-27 13:01:00,
2013-04-27 03:11:00,65.0,64.0,30.02,NE,47,0.0,-999.0,98,-99.99,,,-99.99,,2013-04-27 13:11:00,
2013-04-27 03:21:00,65.0,64.0,30.02,NE,47,0.0,-999.0,98,-99.99,,,-99.99,,2013-04-27 13:21:00,
2013-04-27 03:32:00,65.0,64.0,30.02,NE,47,0.0,-999.0,97,-99.99,,,-99.99,,2013-04-27 13:32:00,
2013-04-27 03:41:00,65.0,64.0,30.02,NE,47,0.0,-999.0,97,-99.99,,,-99.99,,2013-04-27 13:41:00,
2013-04-27 03:52:00,65.0,64.0,30.02,NE,47,0.0,-999.0,98,-99.99,,,-99.99,,2013-04-27 13:52:00,
2013-04-27 04:02:00,65.0,64.0,30.02,NE,47,0.0,-999.0,98,-99.99,,,-99.99,,2013-04-27 14:02:00,
2013-04-27 04:11:00,65.0,64.0,30.02,NE,47,0.0,-999.0,98,-99.99,,,-99.99,,2013-04-27 14:11:00,
2013-04-27 04:21:00,64.0,63.0,30.02,NE,48,0.0,-999.0,98,-99.99,,,-99.99,,2013-04-27 14:21:00,
2013-04-27 04:31:00,64.0,63.0,30.02,NE,47,0.0,-999.0,98,-99.99,,,-99.99,,2013-04-27 14:31:00,
2013-04-27 04:41:00,64.0,63.0,30.02,NE,47,0.0,-999.0,98,-99.99,,,-99.99,,2013-04-27 14:41:00,
2013-04-27 04:52:00,64.0,63.0,30.03,NE,48,0.0,-999.0,98,-99.99,,,-99.99,,2013-04-27 14:52:00,
2013-04-27 05:01:00,64.0,63.0,30.02,NE,47,0.0,-999.0,98,-99.99,,,-99.99,,2013-04-27 15:01:00,
2013-04-27 05:11:00,64.0,63.0,30.02,NE,47,0.0,-999.0,98,-99.99,,,-99.99,,2013-04-27 15:11:00,
2013-04-27 05:21:00,63.0,62.0,30.02,NE,47,0.0,-999.0,97,-99.99,,,-99.99,,2013-04-27 15:21:00,
2013-04-27 05:33:00,62.0,61.0,30.03,NE,47,0.0,-999.0,98,-99.99,,,-99.99,,2013-04-27 15:33:00,
2013-04-27 05:42:00,62.0,61.0,30.03,NE,47,0.0,-999.0,98,-99.99,,,-99.99,,2013-04-27 15:42:00,
2013-04-27 05:52:00,63.0,62.0,30.03,NE,48,0.0,-999.0,98,-99.99,,,-99.99,,2013-04-27 15:52:00,
2013-04-27 06:02:00,62.0,61.0,30.03,NE,47,0.0,-999.0,98,-99.99,,,-99.99,,2013-04-27 16:02:00,
2013-04-27 06:13:00,62.0,61.0,30.03,NE,47,0.0,-999.0,98,-99.99,,,-99.99,,2013-04-27 16:13:00,
2013-04-27 06:22:00,62.0,61.0,30.03,NE,47,0.0,-999.0,98,-99.99,,,-99.99,,2013-04-27 16:22:00,
2013-04-27 06:32:00,62.0,61.0,30.04,NE,47,0.0,-999.0,98,-99.99,,,-99.99,,2013-04-27 16:32:00,
2013-04-27 06:42:00,62.0,61.0,30.04,NE,47,0.0,-999.0,98,-99.99,,,-99.99,,2013-04-27 16:42:00,
2013-04-27 06:52:00,62.0,61.0,30.04,NE,47,0.0,-999.0,98,-99.99,,,-99.99,,2013-04-27 16:52:00,
2013-04-27 07:02:00,63.0,62.0,30.05,NE,47,0.0,-999.0,98,-99.99,,,-99.99,,2013-04-27 17:02:00,
2013-04-27 07:11:00,63.0,62.0,30.05,NE,47,0.0,-999.0,98,-99.99,,,-99.99,,2013-04-27 17:11:00,
2013-04-27 07:22:00,64.0,64.0,30.05,NE,48,0.0,-999.0,99,-99.99,,,-99.99,,2013-04-27 17:22:00,
2013-04-27 07:31:00,65.0,64.0,30.06,NE,48,0.0,-999.0,98,-99.99,,,-99.99,,2013-04-27 17:31:00,
2013-04-27 07:42:00,65.0,64.0,30.06,NE,48,0.0,-999.0,98,-99.99,,,-99.99,,2013-04-27 17:42:00,
2013-04-27 07:52:00,66.0,66.0,30.06,NE,48,0.0,-999.0,99,-99.99,,,-99.99,,2013-04-27 17:52:00,
2013-04-27 08:02:00,67.0,67.0,30.07,NE,47,0.0,-999.0,99,-99.99,,,-99.99,,2013-04-27 18:02:00,
2013-04-27 08:11:00,67.0,67.0,30.07,NE,47,0.0,-999.0,99,-99.99,,,-99.99,,2013-04-27 18:11:00,
2013-04-27 08:21:00,68.0,67.0,30.07,NE,48,0.0,-999.0,98,-99.99,,,-99.99,,2013-04-27 18:21:00,
2013-04-27 08:32:00,70.0,69.0,30.07,NE,48,0.0,-999.0,97,-99.99,,,-99.99,,2013-04-27 18:32:00,
2013-04-27 08:41:00,70.0,69.0,30.07,NE,48,0.0,-999.0,97,-99.99,,,-99.99,,2013-04-27 18:41:00,
2013-04-27 08:51:00,71.0,69.0,30.08,NE,50,0.0,-999.0,92,-99.99,,,-99.99,,2013-04-27 18:51:00,
2013-04-27 09:01:00,72.0,69.0,30.08,NE,50,0.0,-999.0,89,-99.99,,,-99.99,,2013-04-27 19:01:00,
2013-04-27 09:11:00,72.0,69.0,30.08,NE,50,0.0,-999.0,89,-99.99,,,-99.99,,2013-04-27 19:11:00,
2013-04-27 09:21:00,73.0,69.0,30.08,NE,50,0.0,-999.0,87,-99.99,,,-99.99,,2013-04-27 19:21:00,
2013-04-27 09:42:00,73.0,67.0,30.09,NE,50,0.0,-999.0,81,-99.99,,,-99.99,,2013-04-27 19:42:00,
2013-04-27 09:52:00,71.0,67.0,30.09,ENE,59,1.0,-999.0,87,-99.99,,,-99.99,,2013-04-27 19:52:00,
2013-04-27 10:02:00,70.0,68.0,30.10,SE,132,0.0,-999.0,92,-99.99,,,-99.99,,2013-04-27 20:02:00,
2013-04-27 10:11:00,70.0,68.0,30.10,SE,132,0.0,-999.0,92,-99.99,,,-99.99,,2013-04-27 20:11:00,
2013-04-27 10:21:00,69.0,66.0,30.10,SSW,201,0.0,-999.0,91,-99.99,,,-99.99,,2013-04-27 20:21:00,
2013-04-27 10:31:00,70.0,68.0,30.10,NE,51,0.0,-999.0,92,-99.99,,,-99.99,,2013-04-27 20:31:00,
2013-04-27 10:41:00,70.0,68.0,30.10,NE,51,0.0,-999.0,92,-99.99,,,-99.99,,2013-04-27 20:41:00,
2013-04-27 10:52:00,71.0,69.0,30.09,NE,51,0.0,-999.0,92,-99.99,,,-99.99,,2013-04-27 20:52:00,
2013-04-27 11:02:00,73.0,69.0,30.09,SSE,160,0.0,-999.0,88,-99.99,,,-99.99,,2013-04-27 21:02:00,
2013-04-27 11:11:00,73.0,69.0,30.09,SSE,160,0.0,-999.0,88,-99.99,,,-99.99,,2013-04-27 21:11:00,
2013-04-27 11:21:00,74.0,68.0,30.08,South,169,0.0,-999.0,82,-99.99,,,-99.99,,2013-04-27 21:21:00,
2013-04-27 11:32:00,76.0,70.0,30.08,South,180,0.0,-999.0,82,-99.99,,,-99.99,,2013-04-27 21:32:00,
2013-04-27 11:42:00,76.0,70.0,30.08,South,180,0.0,-999.0,82,-99.99,,,-99.99,,2013-04-27 21:42:00,
2013-04-27 11:53:00,78.0,68.0,30.07,WSW,245,0.0,-999.0,72,-99.99,,,-99.99,,2013-04-27 21:53:00,
2013-04-27 12:02:00,77.0,69.0,30.07,ENE,65,0.0,-999.0,76,-99.99,,,-99.99,,2013-04-27 22:02:00,
2013-04-27 12:12:00,77.0,69.0,30.07,ENE,65,0.0,-999.0,76,-99.99,,,-99.99,,2013-04-27 22:12:00,
2013-04-27 12:22:00,72.0,68.0,30.07,East,79,3.0,-999.0,88,-99.99,,,-99.99,,2013-04-27 22:22:00,
2013-04-27 12:32:00,73.0,69.0,30.07,ENE,68,3.0,-999.0,86,-99.99,,,-99.99,,2013-04-27 22:32:00,
2013-04-27 12:42:00,73.0,69.0,30.07,ENE,68,3.0,-999.0,86,-99.99,,,-99.99,,2013-04-27 22:42:00,
2013-04-27 12:52:00,72.0,68.0,30.06,ESE,120,0.0,-999.0,87,-99.99,,,-99.99,,2013-04-27 22:52:00,
2013-04-27 13:02:00,73.0,68.0,30.06,SSW,204,0.0,-999.0,85,-99.99,,,-99.99,,2013-04-27 23:02:00,
2013-04-27 13:11:00,73.0,68.0,30.06,SSW,204,0.0,-999.0,85,-99.99,,,-99.99,,2013-04-27 23:11:00,
2013-04-27 13:22:00,75.0,68.0,30.05,SW,230,0.0,-999.0,78,-99.99,,,-99.99,,2013-04-27 23:22:00,
2013-04-27 13:32:00,77.0,68.0,30.04,South,179,1.0,-999.0,73,-99.99,,,-99.99,,2013-04-27 23:32:00,
2013-04-27 13:42:00,77.0,68.0,30.04,South,179,1.0,-999.0,73,-99.99,,,-99.99,,2013-04-27 23:42:00,
2013-04-27 13:52:00,78.0,69.0,30.03,South,171,0.0,-999.0,73,-99.99,,,-99.99,,2013-04-27 23:52:00,
2013-04-27 14:01:00,79.0,70.0,30.03,ENE,78,1.0,-999.0,73,-99.99,,,-99.99,,2013-04-28 00:01:00,
2013-04-27 14:11:00,79.0,70.0,30.03,ENE,78,1.0,-999.0,73,-99.99,,,-99.99,,2013-04-28 00:11:00,
2013-04-27 14:21:00,79.0,67.0,30.02,NNE,27,1.0,-999.0,67,-99.99,,,-99.99,,2013-04-28 00:21:00,
2013-04-27 14:31:00,78.0,66.0,30.02,NNE,18,1.0,-999.0,67,-99.99,,,-99.99,,2013-04-28 00:31:00,
2013-04-27 14:42:00,78.0,66.0,30.02,NNE,18,1.0,-999.0,67,-99.99,,,-99.99,,2013-04-28 00:42:00,
2013-04-27 14:51:00,77.0,67.0,30.01,NE,56,1.0,-999.0,71,-99.99,,,-99.99,,2013-04-28 00:51:00,
2013-04-27 15:01:00,78.0,67.0,30.01,NE,42,1.0,-999.0,69,-99.99,,,-99.99,,2013-04-28 01:01:00,
2013-04-27 15:11:00,78.0,67.0,30.01,NE,42,1.0,-999.0,69,-99.99,,,-99.99,,2013-04-28 01:11:00,
2013-04-27 15:21:00,77.0,66.0,30.00,ENE,68,1.0,-999.0,70,-99.99,,,-99.99,,2013-04-28 01:21:00,
2013-04-27 15:31:00,78.0,66.0,30.00,NE,46,1.0,-999.0,67,-99.99,,,-99.99,,2013-04-28 01:31:00,
2013-04-27 15:41:00,78.0,66.0,30.00,NE,46,1.0,-999.0,67,-99.99,,,-99.99,,2013-04-28 01:41:00,
2013-04-27 15:52:00,78.0,67.0,29.99,NNE,24,0.0,-999.0,70,-99.99,,,-99.99,,2013-04-28 01:52:00,
2013-04-27 16:01:00,77.0,68.0,30.00,ENE,72,1.0,-999.0,73,-99.99,,,-99.99,,2013-04-28 02:01:00,
2013-04-27 16:11:00,77.0,68.0,30.00,ENE,72,1.0,-999.0,73,-99.99,,,-99.99,,2013-04-28 02:11:00,
2013-04-27 16:21:00,77.0,67.0,30.00,NE,43,0.0,-999.0,71,-99.99,,,-99.99,,2013-04-28 02:21:00,
2013-04-27 16:31:00,77.0,67.0,29.99,East,97,1.0,-999.0,72,-99.99,,,-99.99,,2013-04-28 02:31:00,
2013-04-27 16:41:00,77.0,67.0,29.99,East,97,1.0,-999.0,72,-99.99,,,-99.99,,2013-04-28 02:41:00,
2013-04-27 16:52:00,76.0,67.0,29.99,NE,36,1.0,-999.0,73,-99.99,,,-99.99,,2013-04-28 02:52:00,
2013-04-27 17:01:00,76.0,68.0,29.99,WNW,299,0.0,-999.0,76,-99.99,,,-99.99,,2013-04-28 03:01:00,
2013-04-27 17:11:00,76.0,68.0,29.99,WNW,299,0.0,-999.0,76,-99.99,,,-99.99,,2013-04-28 03:11:00,
2013-04-27 17:21:00,75.0,67.0,29.99,ENE,75,0.0,-999.0,76,-99.99,,,-99.99,,2013-04-28 03:21:00,
2013-04-27 17:32:00,75.0,68.0,29.99,NNE,22,0.0,-999.0,78,-99.99,,,-99.99,,2013-04-28 03:32:00,
2013-04-27 17:42:00,75.0,68.0,29.99,NNE,22,0.0,-999.0,78,-99.99,,,-99.99,,2013-04-28 03:42:00,
2013-04-27 17:53:00,74.0,67.0,30.00,North,10,0.0,-999.0,78,-99.99,,,-99.99,,2013-04-28 03:53:00,
2013-04-27 18:02:00,74.0,67.0,30.00,NE,56,0.0,-999.0,78,-99.99,,,-99.99,,2013-04-28 04:02:00,
2013-04-27 18:13:00,74.0,67.0,30.00,NE,56,0.0,-999.0,78,-99.99,,,-99.99,,2013-04-28 04:13:00,
2013-04-27 18:22:00,74.0,67.0,30.01,SSE,162,0.0,-999.0,80,-99.99,,,-99.99,,2013-04-28 04:22:00,
2013-04-27 18:32:00,73.0,66.0,30.01,SSE,162,0.0,-999.0,80,-99.99,,,-99.99,,2013-04-28 04:32:00,
2013-04-27 18:42:00,73.0,66.0,30.01,SSE,162,0.0,-999.0,80,-99.99,,,-99.99,,2013-04-28 04:42:00,
2013-04-27 18:52:00,73.0,67.0,30.02,SE,134,0.0,-999.0,82,-99.99,,,-99.99,,2013-04-28 04:52:00,
2013-04-27 19:02:00,72.0,67.0,30.01,SE,134,0.0,-999.0,84,-99.99,,,-99.99,,2013-04-28 05:02:00,
2013-04-27 19:12:00,72.0,67.0,30.01,SE,134,0.0,-999.0,84,-99.99,,,-99.99,,2013-04-28 05:12:00,
2013-04-27 19:22:00,71.0,66.0,30.03,SE,134,0.0,-999.0,85,-99.99,,,-99.99,,2013-04-28 05:22:00,
2013-04-27 19:32:00,70.0,65.0,30.03,SW,216,0.0,-999.0,84,-99.99,,,-99.99,,2013-04-28 05:32:00,
2013-04-27 19:42:00,70.0,65.0,30.03,SW,216,0.0,-999.0,84,-99.99,,,-99.99,,2013-04-28 05:42:00,
2013-04-27 19:52:00,69.0,64.0,30.04,SW,216,0.0,-999.0,85,-99.99,,,-99.99,,2013-04-28 05:52:00,
2013-04-27 20:01:00,69.0,65.0,30.04,SW,216,0.0,-999.0,87,-99.99,,,-99.99,,2013-04-28 06:01:00,
2013-04-27 20:12:00,69.0,65.0,30.04,SW,216,0.0,-999.0,87,-99.99,,,-99.99,,2013-04-28 06:12:00,
2013-04-27 20:21:00,68.0,65.0,30.05,SW,216,0.0,-999.0,90,-99.99,,,-99.99,,2013-04-28 06:21:00,
2013-04-27 20:32:00,68.0,65.0,30.06,SW,216,0.0,-999.0,91,-99.99,,,-99.99,,2013-04-28 06:32:00,
2013-04-27 20:41:00,68.0,65.0,30.06,SW,216,0.0,-999.0,91,-99.99,,,-99.99,,2013-04-28 06:41:00,
2013-04-27 20:51:00,68.0,66.0,30.07,SW,216,0.0,-999.0,92,-99.99,,,-99.99,,2013-04-28 06:51:00,
2013-04-27 21:01:00,69.0,67.0,30.07,SW,216,0.0,-999.0,92,-99.99,,,-99.99,,2013-04-28 07:01:00,
2013-04-27 21:11:00,69.0,67.0,30.07,SW,216,0.0,-999.0,92,-99.99,,,-99.99,,2013-04-28 07:11:00,
2013-04-27 21:21:00,68.0,66.0,30.08,SW,216,0.0,-999.0,93,-99.99,,,-99.99,,2013-04-28 07:21:00,
2013-04-27 21:31:00,68.0,66.0,30.08,SW,216,0.0,-999.0,93,-99.99,,,-99.99,,2013-04-28 07:31:00,
2013-04-27 21:42:00,68.0,66.0,30.08,SW,216,0.0,-999.0,93,-99.99,,,-99.99,,2013-04-28 07:42:00,
2013-04-27 21:52:00,68.0,66.0,30.09,SW,216,0.0,-999.0,93,-99.99,,,-99.99,,2013-04-28 07:52:00,
2013-04-27 22:01:00,68.0,66.0,30.10,SW,216,0.0,-999.0,93,-99.99,,,-99.99,,2013-04-28 08:01:00,
2013-04-27 22:11:00,68.0,66.0,30.10,SW,216,0.0,-999.0,93,-99.99,,,-99.99,,2013-04-28 08:11:00,
2013-04-27 22:21:00,68.0,66.0,30.10,SW,216,0.0,-999.0,93,-99.99,,,-99.99,,2013-04-28 08:21:00,
2013-04-27 22:32:00,68.0,66.0,30.10,SW,216,0.0,-999.0,93,-99.99,,,-99.99,,2013-04-28 08:32:00,
2013-04-27 22:42:00,68.0,66.0,30.10,SW,216,0.0,-999.0,93,-99.99,,,-99.99,,2013-04-28 08:42:00,
2013-04-27 22:51:00,68.0,66.0,30.10,SW,216,0.0,-999.0,93,-99.99,,,-99.99,,2013-04-28 08:51:00,
2013-04-27 23:01:00,67.0,65.0,30.09,SW,216,0.0,-999.0,93,-99.99,,,-99.99,,2013-04-28 09:01:00,
2013-04-27 23:11:00,67.0,65.0,30.09,SW,216,0.0,-999.0,93,-99.99,,,-99.99,,2013-04-28 09:11:00,
2013-04-27 23:21:00,67.0,65.0,30.09,SW,226,0.0,-999.0,94,-99.99,,,-99.99,,2013-04-28 09:21:00,
2013-04-27 23:32:00,67.0,65.0,30.09,SW,226,0.0,-999.0,94,-99.99,,,-99.99,,2013-04-28 09:32:00,
2013-04-27 23:42:00,67.0,65.0,30.09,SW,226,0.0,-999.0,94,-99.99,,,-99.99,,2013-04-28 09:42:00,
2013-04-27 23:53:00,67.0,66.0,30.09,SW,226,0.0,-999.0,95,-99.99,,,-99.99,,2013-04-28 09:53:00,